sensor_id;sensor_type;location;lat;lon;timestamp;temperature;humidity
8778;DHT22;4425;50.872;4.712;2023-03-12T00:01:18;4.80;99.90
8778;DHT22;4425;50.872;4.712;2023-03-12T00:03:48;4.80;99.90
8778;DHT22;4425;50.872;4.712;2023-03-12T00:06:17;5.00;99.90
8778;DHT22;4425;50.872;4.712;2023-03-12T00:08:44;4.90;99.90
8778;DHT22;4425;50.872;4.712;2023-03-12T00:11:13;4.90;99.90
8778;DHT22;4425;50.872;4.712;2023-03-12T00:13:47;4.90;99.90
8778;DHT22;4425;50.872;4.712;2023-03-12T00:16:16;4.80;99.90
8778;DHT22;4425;50.872;4.712;2023-03-12T00:18:51;4.80;99.90
8778;DHT22;4425;50.872;4.712;2023-03-12T00:21:19;4.80;99.90
8778;DHT22;4425;50.872;4.712;2023-03-12T00:23:50;4.90;99.90
8778;DHT22;4425;50.872;4.712;2023-03-12T00:26:24;4.90;99.90
8778;DHT22;4425;50.872;4.712;2023-03-12T00:28:52;4.90;99.90
8778;DHT22;4425;50.872;4.712;2023-03-12T00:31:24;4.90;99.90
8778;DHT22;4425;50.872;4.712;2023-03-12T00:33:54;4.90;99.90
8778;DHT22;4425;50.872;4.712;2023-03-12T00:36:26;4.90;99.90
8778;DHT22;4425;50.872;4.712;2023-03-12T00:38:54;4.90;99.90
8778;DHT22;4425;50.872;4.712;2023-03-12T00:41:23;4.90;99.90
8778;DHT22;4425;50.872;4.712;2023-03-12T00:43:51;4.90;99.90
8778;DHT22;4425;50.872;4.712;2023-03-12T00:46:22;5.00;99.90
8778;DHT22;4425;50.872;4.712;2023-03-12T00:48:57;5.00;99.90
8778;DHT22;4425;50.872;4.712;2023-03-12T00:51:28;5.00;99.90
8778;DHT22;4425;50.872;4.712;2023-03-12T00:53:57;5.10;99.90
8778;DHT22;4425;50.872;4.712;2023-03-12T00:56:25;5.10;99.90
8778;DHT22;4425;50.872;4.712;2023-03-12T00:58:55;5.10;99.90
8778;DHT22;4425;50.872;4.712;2023-03-12T01:01:23;5.10;99.90
8778;DHT22;4425;50.872;4.712;2023-03-12T01:03:54;5.10;99.90
8778;DHT22;4425;50.872;4.712;2023-03-12T01:06:28;5.10;99.90
8778;DHT22;4425;50.872;4.712;2023-03-12T01:09:00;5.10;99.90
8778;DHT22;4425;50.872;4.712;2023-03-12T01:11:27;5.10;99.90
8778;DHT22;4425;50.872;4.712;2023-03-12T01:13:55;5.10;99.90
8778;DHT22;4425;50.872;4.712;2023-03-12T01:16:22;5.10;99.90
8778;DHT22;4425;50.872;4.712;2023-03-12T01:19:09;5.10;99.90
8778;DHT22;4425;50.872;4.712;2023-03-12T01:21:36;5.10;99.90
8778;DHT22;4425;50.872;4.712;2023-03-12T01:24:05;5.10;99.90
8778;DHT22;4425;50.872;4.712;2023-03-12T01:26:34;5.20;99.90
8778;DHT22;4425;50.872;4.712;2023-03-12T01:29:03;5.10;99.90
8778;DHT22;4425;50.872;4.712;2023-03-12T01:31:32;5.10;99.90
8778;DHT22;4425;50.872;4.712;2023-03-12T01:34:00;5.20;99.90
8778;DHT22;4425;50.872;4.712;2023-03-12T01:36:30;5.20;99.90
8778;DHT22;4425;50.872;4.712;2023-03-12T01:38:59;5.10;99.90
8778;DHT22;4425;50.872;4.712;2023-03-12T01:41:30;5.10;99.90
8778;DHT22;4425;50.872;4.712;2023-03-12T01:44:00;5.10;99.90
8778;DHT22;4425;50.872;4.712;2023-03-12T01:46:30;5.10;99.90
8778;DHT22;4425;50.872;4.712;2023-03-12T01:49:02;5.00;99.90
8778;DHT22;4425;50.872;4.712;2023-03-12T01:51:41;5.00;99.90
8778;DHT22;4425;50.872;4.712;2023-03-12T01:54:12;4.90;99.90
8778;DHT22;4425;50.872;4.712;2023-03-12T01:56:41;4.90;99.90
8778;DHT22;4425;50.872;4.712;2023-03-12T01:59:13;4.80;99.90
8778;DHT22;4425;50.872;4.712;2023-03-12T02:01:43;4.90;99.90
8778;DHT22;4425;50.872;4.712;2023-03-12T02:04:15;4.80;99.90
8778;DHT22;4425;50.872;4.712;2023-03-12T02:06:50;4.80;99.90
8778;DHT22;4425;50.872;4.712;2023-03-12T02:09:19;4.80;99.90
8778;DHT22;4425;50.872;4.712;2023-03-12T02:11:49;4.70;99.90
8778;DHT22;4425;50.872;4.712;2023-03-12T02:14:17;4.70;99.90
8778;DHT22;4425;50.872;4.712;2023-03-12T02:16:44;4.70;99.90
8778;DHT22;4425;50.872;4.712;2023-03-12T02:19:16;4.70;99.90
8778;DHT22;4425;50.872;4.712;2023-03-12T02:21:45;4.80;99.90
8778;DHT22;4425;50.872;4.712;2023-03-12T02:24:20;4.70;99.90
8778;DHT22;4425;50.872;4.712;2023-03-12T02:26:50;4.60;99.90
8778;DHT22;4425;50.872;4.712;2023-03-12T02:29:21;4.60;99.90
8778;DHT22;4425;50.872;4.712;2023-03-12T02:31:51;4.70;99.90
8778;DHT22;4425;50.872;4.712;2023-03-12T02:34:19;4.60;99.90
8778;DHT22;4425;50.872;4.712;2023-03-12T02:36:47;4.60;99.90
8778;DHT22;4425;50.872;4.712;2023-03-12T02:39:15;4.70;99.90
8778;DHT22;4425;50.872;4.712;2023-03-12T02:41:45;4.70;99.90
8778;DHT22;4425;50.872;4.712;2023-03-12T02:44:17;4.70;99.90
8778;DHT22;4425;50.872;4.712;2023-03-12T02:46:46;4.70;99.90
8778;DHT22;4425;50.872;4.712;2023-03-12T02:49:14;4.60;99.90
8778;DHT22;4425;50.872;4.712;2023-03-12T02:51:43;4.70;99.90
8778;DHT22;4425;50.872;4.712;2023-03-12T02:54:12;4.60;99.90
8778;DHT22;4425;50.872;4.712;2023-03-12T02:56:41;4.70;99.90
8778;DHT22;4425;50.872;4.712;2023-03-12T02:59:11;4.70;99.90
8778;DHT22;4425;50.872;4.712;2023-03-12T03:01:41;4.70;99.90
8778;DHT22;4425;50.872;4.712;2023-03-12T03:04:11;4.70;99.90
8778;DHT22;4425;50.872;4.712;2023-03-12T03:06:40;4.60;99.90
8778;DHT22;4425;50.872;4.712;2023-03-12T03:09:09;4.70;99.90
8778;DHT22;4425;50.872;4.712;2023-03-12T03:11:37;4.60;99.90
8778;DHT22;4425;50.872;4.712;2023-03-12T03:14:06;4.60;99.90
8778;DHT22;4425;50.872;4.712;2023-03-12T03:16:35;4.60;99.90
8778;DHT22;4425;50.872;4.712;2023-03-12T03:19:08;4.50;99.90
8778;DHT22;4425;50.872;4.712;2023-03-12T03:21:36;4.60;99.90
8778;DHT22;4425;50.872;4.712;2023-03-12T03:24:04;4.70;99.90
8778;DHT22;4425;50.872;4.712;2023-03-12T03:26:38;4.70;99.90
8778;DHT22;4425;50.872;4.712;2023-03-12T03:29:06;4.80;99.90
8778;DHT22;4425;50.872;4.712;2023-03-12T03:31:33;4.80;99.90
8778;DHT22;4425;50.872;4.712;2023-03-12T03:34:01;4.70;99.90
8778;DHT22;4425;50.872;4.712;2023-03-12T03:36:29;4.70;99.90
8778;DHT22;4425;50.872;4.712;2023-03-12T03:38:56;4.60;99.90
8778;DHT22;4425;50.872;4.712;2023-03-12T03:41:35;4.60;99.90
8778;DHT22;4425;50.872;4.712;2023-03-12T03:44:02;4.60;99.90
8778;DHT22;4425;50.872;4.712;2023-03-12T03:46:31;4.60;99.90
8778;DHT22;4425;50.872;4.712;2023-03-12T03:49:00;4.60;99.90
8778;DHT22;4425;50.872;4.712;2023-03-12T03:51:28;4.60;99.90
8778;DHT22;4425;50.872;4.712;2023-03-12T03:53:56;4.70;99.90
8778;DHT22;4425;50.872;4.712;2023-03-12T03:56:25;4.70;99.90
8778;DHT22;4425;50.872;4.712;2023-03-12T03:58:52;4.70;99.90
8778;DHT22;4425;50.872;4.712;2023-03-12T04:01:20;4.70;99.90
8778;DHT22;4425;50.872;4.712;2023-03-12T04:03:47;4.80;99.90
8778;DHT22;4425;50.872;4.712;2023-03-12T04:06:15;4.80;99.90
8778;DHT22;4425;50.872;4.712;2023-03-12T04:08:43;4.80;99.90
8778;DHT22;4425;50.872;4.712;2023-03-12T04:11:12;4.80;99.90
8778;DHT22;4425;50.872;4.712;2023-03-12T04:13:42;4.70;99.90
8778;DHT22;4425;50.872;4.712;2023-03-12T04:16:09;4.70;99.90
8778;DHT22;4425;50.872;4.712;2023-03-12T04:18:41;4.80;99.90
8778;DHT22;4425;50.872;4.712;2023-03-12T04:21:09;4.80;99.90
8778;DHT22;4425;50.872;4.712;2023-03-12T04:23:37;4.80;99.90
8778;DHT22;4425;50.872;4.712;2023-03-12T04:26:06;4.80;99.90
8778;DHT22;4425;50.872;4.712;2023-03-12T04:28:33;4.80;99.90
8778;DHT22;4425;50.872;4.712;2023-03-12T04:31:04;4.80;99.90
8778;DHT22;4425;50.872;4.712;2023-03-12T04:33:34;4.80;99.90
8778;DHT22;4425;50.872;4.712;2023-03-12T04:36:02;4.80;99.90
8778;DHT22;4425;50.872;4.712;2023-03-12T04:38:29;4.80;99.90
8778;DHT22;4425;50.872;4.712;2023-03-12T04:40:58;4.80;99.90
8778;DHT22;4425;50.872;4.712;2023-03-12T04:43:28;4.80;99.90
8778;DHT22;4425;50.872;4.712;2023-03-12T04:45:56;4.80;99.90
8778;DHT22;4425;50.872;4.712;2023-03-12T04:48:26;5.00;99.90
8778;DHT22;4425;50.872;4.712;2023-03-12T04:50:53;4.90;99.90
8778;DHT22;4425;50.872;4.712;2023-03-12T04:53:21;4.90;99.90
8778;DHT22;4425;50.872;4.712;2023-03-12T04:55:51;4.90;99.90
8778;DHT22;4425;50.872;4.712;2023-03-12T04:58:19;4.90;99.90
8778;DHT22;4425;50.872;4.712;2023-03-12T05:00:49;4.90;99.90
8778;DHT22;4425;50.872;4.712;2023-03-12T05:03:18;4.90;99.90
8778;DHT22;4425;50.872;4.712;2023-03-12T05:05:46;4.90;99.90
8778;DHT22;4425;50.872;4.712;2023-03-12T05:08:13;4.90;99.90
8778;DHT22;4425;50.872;4.712;2023-03-12T05:10:40;4.80;99.90
8778;DHT22;4425;50.872;4.712;2023-03-12T05:13:13;4.90;99.90
8778;DHT22;4425;50.872;4.712;2023-03-12T05:15:41;5.00;99.90
8778;DHT22;4425;50.872;4.712;2023-03-12T05:18:12;5.00;99.90
8778;DHT22;4425;50.872;4.712;2023-03-12T05:20:39;5.00;99.90
8778;DHT22;4425;50.872;4.712;2023-03-12T05:23:07;5.00;99.90
8778;DHT22;4425;50.872;4.712;2023-03-12T05:25:38;5.00;99.90
8778;DHT22;4425;50.872;4.712;2023-03-12T05:28:05;5.00;99.90
8778;DHT22;4425;50.872;4.712;2023-03-12T05:30:32;5.10;99.90
8778;DHT22;4425;50.872;4.712;2023-03-12T05:32:59;5.10;99.90
8778;DHT22;4425;50.872;4.712;2023-03-12T05:35:30;5.10;99.90
8778;DHT22;4425;50.872;4.712;2023-03-12T05:37:58;5.30;99.90
8778;DHT22;4425;50.872;4.712;2023-03-12T05:40:25;5.10;99.90
8778;DHT22;4425;50.872;4.712;2023-03-12T05:42:53;5.20;99.90
8778;DHT22;4425;50.872;4.712;2023-03-12T05:45:31;5.20;99.90
8778;DHT22;4425;50.872;4.712;2023-03-12T05:51:28;5.20;99.90
8778;DHT22;4425;50.872;4.712;2023-03-12T05:53:59;5.30;99.90
8778;DHT22;4425;50.872;4.712;2023-03-12T05:56:26;5.40;99.90
8778;DHT22;4425;50.872;4.712;2023-03-12T05:58:55;5.40;99.90
8778;DHT22;4425;50.872;4.712;2023-03-12T06:01:24;5.50;99.90
8778;DHT22;4425;50.872;4.712;2023-03-12T06:03:52;5.50;99.90
8778;DHT22;4425;50.872;4.712;2023-03-12T06:06:37;5.50;99.90
8778;DHT22;4425;50.872;4.712;2023-03-12T06:09:11;5.60;99.90
8778;DHT22;4425;50.872;4.712;2023-03-12T06:11:38;5.60;99.90
8778;DHT22;4425;50.872;4.712;2023-03-12T06:14:12;5.70;99.90
8778;DHT22;4425;50.872;4.712;2023-03-12T06:16:39;5.70;99.90
8778;DHT22;4425;50.872;4.712;2023-03-12T06:19:07;5.80;99.90
8778;DHT22;4425;50.872;4.712;2023-03-12T06:21:42;5.80;99.90
8778;DHT22;4425;50.872;4.712;2023-03-12T06:24:09;5.90;99.90
8778;DHT22;4425;50.872;4.712;2023-03-12T06:26:38;6.00;99.90
8778;DHT22;4425;50.872;4.712;2023-03-12T06:29:05;6.10;99.90
8778;DHT22;4425;50.872;4.712;2023-03-12T06:31:35;6.10;99.90
8778;DHT22;4425;50.872;4.712;2023-03-12T06:34:07;6.20;99.90
8778;DHT22;4425;50.872;4.712;2023-03-12T06:36:35;6.30;99.90
8778;DHT22;4425;50.872;4.712;2023-03-12T06:39:03;6.30;99.90
8778;DHT22;4425;50.872;4.712;2023-03-12T06:41:34;6.30;99.90
8778;DHT22;4425;50.872;4.712;2023-03-12T06:44:02;6.50;99.90
8778;DHT22;4425;50.872;4.712;2023-03-12T06:46:34;6.40;99.90
8778;DHT22;4425;50.872;4.712;2023-03-12T06:49:02;6.40;99.90
8778;DHT22;4425;50.872;4.712;2023-03-12T06:51:31;6.40;99.90
8778;DHT22;4425;50.872;4.712;2023-03-12T06:53:58;6.70;99.90
8778;DHT22;4425;50.872;4.712;2023-03-12T06:56:29;6.60;99.90
8778;DHT22;4425;50.872;4.712;2023-03-12T06:58:56;6.60;99.90
8778;DHT22;4425;50.872;4.712;2023-03-12T07:01:24;6.70;99.90
8778;DHT22;4425;50.872;4.712;2023-03-12T07:03:53;6.70;99.90
8778;DHT22;4425;50.872;4.712;2023-03-12T07:06:24;6.70;99.90
8778;DHT22;4425;50.872;4.712;2023-03-12T07:08:51;6.80;99.90
8778;DHT22;4425;50.872;4.712;2023-03-12T07:11:19;6.80;99.90
8778;DHT22;4425;50.872;4.712;2023-03-12T07:13:47;6.90;99.90
8778;DHT22;4425;50.872;4.712;2023-03-12T07:16:14;7.00;99.90
8778;DHT22;4425;50.872;4.712;2023-03-12T07:18:43;7.00;99.90
8778;DHT22;4425;50.872;4.712;2023-03-12T07:21:11;7.10;99.90
8778;DHT22;4425;50.872;4.712;2023-03-12T07:23:38;7.10;99.90
8778;DHT22;4425;50.872;4.712;2023-03-12T07:26:07;7.20;99.90
8778;DHT22;4425;50.872;4.712;2023-03-12T07:28:34;7.30;99.90
8778;DHT22;4425;50.872;4.712;2023-03-12T07:31:05;7.20;99.90
8778;DHT22;4425;50.872;4.712;2023-03-12T07:33:36;7.50;99.90
8778;DHT22;4425;50.872;4.712;2023-03-12T07:36:04;7.30;99.90
8778;DHT22;4425;50.872;4.712;2023-03-12T07:38:32;7.40;99.90
8778;DHT22;4425;50.872;4.712;2023-03-12T07:40:59;7.50;99.90
8778;DHT22;4425;50.872;4.712;2023-03-12T07:43:26;7.60;99.90
8778;DHT22;4425;50.872;4.712;2023-03-12T07:45:54;7.70;99.90
8778;DHT22;4425;50.872;4.712;2023-03-12T07:48:23;7.70;99.90
8778;DHT22;4425;50.872;4.712;2023-03-12T07:50:53;7.80;99.90
8778;DHT22;4425;50.872;4.712;2023-03-12T07:57:08;7.90;99.90
8778;DHT22;4425;50.872;4.712;2023-03-12T07:59:35;8.00;99.90
8778;DHT22;4425;50.872;4.712;2023-03-12T08:02:02;8.00;99.90
8778;DHT22;4425;50.872;4.712;2023-03-12T08:04:31;8.10;99.90
8778;DHT22;4425;50.872;4.712;2023-03-12T08:06:58;8.20;99.90
8778;DHT22;4425;50.872;4.712;2023-03-12T08:09:29;8.40;99.90
8778;DHT22;4425;50.872;4.712;2023-03-12T08:11:57;8.50;99.90
8778;DHT22;4425;50.872;4.712;2023-03-12T08:14:24;8.60;99.90
8778;DHT22;4425;50.872;4.712;2023-03-12T08:16:57;8.70;99.90
8778;DHT22;4425;50.872;4.712;2023-03-12T08:19:25;8.80;99.90
8778;DHT22;4425;50.872;4.712;2023-03-12T08:21:54;9.00;99.90
8778;DHT22;4425;50.872;4.712;2023-03-12T08:24:23;8.90;99.90
8778;DHT22;4425;50.872;4.712;2023-03-12T08:26:50;9.00;99.90
8778;DHT22;4425;50.872;4.712;2023-03-12T08:29:18;9.00;99.90
8778;DHT22;4425;50.872;4.712;2023-03-12T08:31:47;9.10;99.90
8778;DHT22;4425;50.872;4.712;2023-03-12T08:34:15;9.20;99.90
8778;DHT22;4425;50.872;4.712;2023-03-12T08:36:43;9.30;99.90
8778;DHT22;4425;50.872;4.712;2023-03-12T08:39:12;9.30;99.90
8778;DHT22;4425;50.872;4.712;2023-03-12T08:41:39;9.40;99.90
8778;DHT22;4425;50.872;4.712;2023-03-12T08:44:06;9.40;99.90
8778;DHT22;4425;50.872;4.712;2023-03-12T08:46:33;9.40;99.90
8778;DHT22;4425;50.872;4.712;2023-03-12T08:49:00;9.50;99.90
8778;DHT22;4425;50.872;4.712;2023-03-12T08:51:28;9.30;99.90
8778;DHT22;4425;50.872;4.712;2023-03-12T08:53:56;9.60;99.90
8778;DHT22;4425;50.872;4.712;2023-03-12T08:56:26;9.60;99.90
8778;DHT22;4425;50.872;4.712;2023-03-12T08:58:53;9.60;99.90
8778;DHT22;4425;50.872;4.712;2023-03-12T09:01:20;9.70;99.90
8778;DHT22;4425;50.872;4.712;2023-03-12T09:03:47;9.90;99.90
8778;DHT22;4425;50.872;4.712;2023-03-12T09:06:17;10.00;99.90
8778;DHT22;4425;50.872;4.712;2023-03-12T09:08:48;10.10;99.90
8778;DHT22;4425;50.872;4.712;2023-03-12T09:11:22;10.20;99.90
8778;DHT22;4425;50.872;4.712;2023-03-12T09:13:50;10.20;99.90
8778;DHT22;4425;50.872;4.712;2023-03-12T09:16:18;10.30;99.90
8778;DHT22;4425;50.872;4.712;2023-03-12T09:18:45;10.30;99.90
8778;DHT22;4425;50.872;4.712;2023-03-12T09:21:12;10.40;99.90
8778;DHT22;4425;50.872;4.712;2023-03-12T09:23:39;10.40;99.90
8778;DHT22;4425;50.872;4.712;2023-03-12T09:26:08;10.50;99.90
8778;DHT22;4425;50.872;4.712;2023-03-12T09:28:37;10.80;99.90
8778;DHT22;4425;50.872;4.712;2023-03-12T09:31:06;11.10;99.90
8778;DHT22;4425;50.872;4.712;2023-03-12T09:33:35;11.20;99.90
8778;DHT22;4425;50.872;4.712;2023-03-12T09:36:03;11.30;99.90
8778;DHT22;4425;50.872;4.712;2023-03-12T09:38:30;11.30;99.90
8778;DHT22;4425;50.872;4.712;2023-03-12T09:41:03;11.30;99.90
8778;DHT22;4425;50.872;4.712;2023-03-12T09:43:35;11.20;99.90
8778;DHT22;4425;50.872;4.712;2023-03-12T09:46:14;11.30;99.90
8778;DHT22;4425;50.872;4.712;2023-03-12T09:48:44;11.50;99.90
8778;DHT22;4425;50.872;4.712;2023-03-12T09:51:17;11.50;99.90
8778;DHT22;4425;50.872;4.712;2023-03-12T09:53:46;11.60;99.90
8778;DHT22;4425;50.872;4.712;2023-03-12T09:56:18;11.70;99.90
8778;DHT22;4425;50.872;4.712;2023-03-12T09:58:50;11.80;99.90
8778;DHT22;4425;50.872;4.712;2023-03-12T10:05:05;12.00;99.90
8778;DHT22;4425;50.872;4.712;2023-03-12T10:07:38;12.30;99.90
8778;DHT22;4425;50.872;4.712;2023-03-12T10:10:29;12.40;99.90
8778;DHT22;4425;50.872;4.712;2023-03-12T10:13:17;12.50;99.90
8778;DHT22;4425;50.872;4.712;2023-03-12T10:15:57;12.50;99.90
8778;DHT22;4425;50.872;4.712;2023-03-12T10:18:40;12.60;99.90
8778;DHT22;4425;50.872;4.712;2023-03-12T10:21:23;12.70;99.90
8778;DHT22;4425;50.872;4.712;2023-03-12T10:24:19;12.80;99.90
8778;DHT22;4425;50.872;4.712;2023-03-12T10:26:52;12.90;99.90
8778;DHT22;4425;50.872;4.712;2023-03-12T10:29:22;13.00;99.90
8778;DHT22;4425;50.872;4.712;2023-03-12T10:31:56;12.90;99.90
8778;DHT22;4425;50.872;4.712;2023-03-12T10:34:29;12.80;99.90
8778;DHT22;4425;50.872;4.712;2023-03-12T10:37:04;12.70;99.90
8778;DHT22;4425;50.872;4.712;2023-03-12T10:39:32;12.70;99.90
8778;DHT22;4425;50.872;4.712;2023-03-12T10:42:01;12.60;99.90
8778;DHT22;4425;50.872;4.712;2023-03-12T10:44:29;12.50;99.90
8778;DHT22;4425;50.872;4.712;2023-03-12T10:47:06;12.40;99.90
8778;DHT22;4425;50.872;4.712;2023-03-12T10:49:38;12.50;99.90
8778;DHT22;4425;50.872;4.712;2023-03-12T10:52:14;12.50;99.90
8778;DHT22;4425;50.872;4.712;2023-03-12T10:54:44;12.60;99.90
8778;DHT22;4425;50.872;4.712;2023-03-12T10:57:14;12.60;99.90
8778;DHT22;4425;50.872;4.712;2023-03-12T10:59:44;12.60;99.90
8778;DHT22;4425;50.872;4.712;2023-03-12T11:02:33;12.70;99.90
8778;DHT22;4425;50.872;4.712;2023-03-12T11:05:19;13.00;99.90
8778;DHT22;4425;50.872;4.712;2023-03-12T11:07:49;13.10;99.90
8778;DHT22;4425;50.872;4.712;2023-03-12T11:10:23;13.10;99.90
8778;DHT22;4425;50.872;4.712;2023-03-12T11:13:02;13.20;99.90
8778;DHT22;4425;50.872;4.712;2023-03-12T11:15:41;13.40;99.90
8778;DHT22;4425;50.872;4.712;2023-03-12T11:18:28;13.40;99.90
8778;DHT22;4425;50.872;4.712;2023-03-12T11:21:15;13.20;99.90
8778;DHT22;4425;50.872;4.712;2023-03-12T11:24:09;13.20;99.90
8778;DHT22;4425;50.872;4.712;2023-03-12T11:26:45;13.20;99.90
8778;DHT22;4425;50.872;4.712;2023-03-12T11:29:21;13.20;99.90
8778;DHT22;4425;50.872;4.712;2023-03-12T11:32:02;13.30;99.90
8778;DHT22;4425;50.872;4.712;2023-03-12T11:34:37;13.10;99.90
8778;DHT22;4425;50.872;4.712;2023-03-12T11:37:13;13.20;99.90
8778;DHT22;4425;50.872;4.712;2023-03-12T11:40:02;13.30;99.90
8778;DHT22;4425;50.872;4.712;2023-03-12T11:42:44;13.40;99.90
8778;DHT22;4425;50.872;4.712;2023-03-12T11:45:19;13.30;99.90
8778;DHT22;4425;50.872;4.712;2023-03-12T11:47:55;13.20;99.90
8778;DHT22;4425;50.872;4.712;2023-03-12T11:54:21;13.20;99.90
8778;DHT22;4425;50.872;4.712;2023-03-12T11:56:57;13.20;99.90
8778;DHT22;4425;50.872;4.712;2023-03-12T11:59:42;13.30;99.90
8778;DHT22;4425;50.872;4.712;2023-03-12T12:02:19;13.40;99.90
8778;DHT22;4425;50.872;4.712;2023-03-12T12:05:07;13.30;99.90
8778;DHT22;4425;50.872;4.712;2023-03-12T12:11:25;13.30;99.90
8778;DHT22;4425;50.872;4.712;2023-03-12T12:14:04;13.50;99.90
8778;DHT22;4425;50.872;4.712;2023-03-12T12:16:53;13.60;99.90
8778;DHT22;4425;50.872;4.712;2023-03-12T12:19:29;13.50;99.90
8778;DHT22;4425;50.872;4.712;2023-03-12T12:22:13;13.40;99.90
8778;DHT22;4425;50.872;4.712;2023-03-12T12:25:14;13.30;99.90
8778;DHT22;4425;50.872;4.712;2023-03-12T12:27:52;13.30;99.90
8778;DHT22;4425;50.872;4.712;2023-03-12T12:30:28;13.70;99.90
8778;DHT22;4425;50.872;4.712;2023-03-12T12:33:14;13.40;99.90
8778;DHT22;4425;50.872;4.712;2023-03-12T12:35:44;13.40;99.90
8778;DHT22;4425;50.872;4.712;2023-03-12T12:38:16;13.30;99.90
8778;DHT22;4425;50.872;4.712;2023-03-12T12:40:50;13.30;99.90
8778;DHT22;4425;50.872;4.712;2023-03-12T12:43:26;13.30;99.90
8778;DHT22;4425;50.872;4.712;2023-03-12T12:46:05;13.30;99.90
8778;DHT22;4425;50.872;4.712;2023-03-12T12:48:39;13.30;99.90
8778;DHT22;4425;50.872;4.712;2023-03-12T12:51:15;13.30;99.90
8778;DHT22;4425;50.872;4.712;2023-03-12T12:54:00;13.50;99.90
8778;DHT22;4425;50.872;4.712;2023-03-12T12:56:32;13.70;99.90
8778;DHT22;4425;50.872;4.712;2023-03-12T12:59:25;13.70;99.90
8778;DHT22;4425;50.872;4.712;2023-03-12T13:01:57;13.70;99.90
8778;DHT22;4425;50.872;4.712;2023-03-12T13:04:29;13.60;99.90
8778;DHT22;4425;50.872;4.712;2023-03-12T13:07:00;13.50;99.90
8778;DHT22;4425;50.872;4.712;2023-03-12T13:09:39;13.50;99.90
8778;DHT22;4425;50.872;4.712;2023-03-12T13:12:19;13.50;99.90
8778;DHT22;4425;50.872;4.712;2023-03-12T13:14:48;13.60;99.90
8778;DHT22;4425;50.872;4.712;2023-03-12T13:17:28;13.60;99.90
8778;DHT22;4425;50.872;4.712;2023-03-12T13:20:14;13.50;99.90
8778;DHT22;4425;50.872;4.712;2023-03-12T13:23:00;13.50;99.90
8778;DHT22;4425;50.872;4.712;2023-03-12T13:25:48;13.40;99.90
8778;DHT22;4425;50.872;4.712;2023-03-12T13:28:33;13.50;99.90
8778;DHT22;4425;50.872;4.712;2023-03-12T13:31:33;13.50;99.90
8778;DHT22;4425;50.872;4.712;2023-03-12T13:37:45;13.50;99.90
8778;DHT22;4425;50.872;4.712;2023-03-12T13:40:33;13.40;99.90
8778;DHT22;4425;50.872;4.712;2023-03-12T13:43:02;13.50;99.90
8778;DHT22;4425;50.872;4.712;2023-03-12T13:45:33;13.40;99.90
8778;DHT22;4425;50.872;4.712;2023-03-12T13:48:14;13.40;99.90
8778;DHT22;4425;50.872;4.712;2023-03-12T13:50:48;13.30;99.90
8778;DHT22;4425;50.872;4.712;2023-03-12T13:53:37;13.30;99.90
8778;DHT22;4425;50.872;4.712;2023-03-12T13:56:10;13.30;99.90
8778;DHT22;4425;50.872;4.712;2023-03-12T13:58:41;13.30;99.90
8778;DHT22;4425;50.872;4.712;2023-03-12T14:01:14;13.30;99.90
8778;DHT22;4425;50.872;4.712;2023-03-12T14:03:45;13.40;99.90
8778;DHT22;4425;50.872;4.712;2023-03-12T14:06:17;13.30;99.90
8778;DHT22;4425;50.872;4.712;2023-03-12T14:09:02;13.30;99.90
8778;DHT22;4425;50.872;4.712;2023-03-12T14:11:39;13.50;99.90
8778;DHT22;4425;50.872;4.712;2023-03-12T14:14:42;13.50;99.90
8778;DHT22;4425;50.872;4.712;2023-03-12T14:17:15;13.60;99.90
8778;DHT22;4425;50.872;4.712;2023-03-12T14:19:46;13.60;99.90
8778;DHT22;4425;50.872;4.712;2023-03-12T14:22:17;13.40;99.90
8778;DHT22;4425;50.872;4.712;2023-03-12T14:24:52;13.50;99.90
8778;DHT22;4425;50.872;4.712;2023-03-12T14:27:25;13.50;99.90
8778;DHT22;4425;50.872;4.712;2023-03-12T14:29:56;13.30;99.90
8778;DHT22;4425;50.872;4.712;2023-03-12T14:32:28;13.40;99.90
8778;DHT22;4425;50.872;4.712;2023-03-12T14:35:02;13.40;99.90
8778;DHT22;4425;50.872;4.712;2023-03-12T14:37:37;13.50;99.90
8778;DHT22;4425;50.872;4.712;2023-03-12T14:40:18;13.70;99.90
8778;DHT22;4425;50.872;4.712;2023-03-12T14:42:48;13.60;99.90
8778;DHT22;4425;50.872;4.712;2023-03-12T14:45:18;13.50;99.90
8778;DHT22;4425;50.872;4.712;2023-03-12T14:47:46;13.30;99.90
8778;DHT22;4425;50.872;4.712;2023-03-12T14:50:19;13.30;99.90
8778;DHT22;4425;50.872;4.712;2023-03-12T14:52:47;13.40;99.90
8778;DHT22;4425;50.872;4.712;2023-03-12T14:55:20;13.50;99.90
8778;DHT22;4425;50.872;4.712;2023-03-12T14:57:48;13.40;99.90
8778;DHT22;4425;50.872;4.712;2023-03-12T15:00:26;13.50;99.90
8778;DHT22;4425;50.872;4.712;2023-03-12T15:03:01;13.50;99.90
8778;DHT22;4425;50.872;4.712;2023-03-12T15:05:30;13.40;99.90
8778;DHT22;4425;50.872;4.712;2023-03-12T15:08:01;13.30;99.90
8778;DHT22;4425;50.872;4.712;2023-03-12T15:10:30;13.40;99.90
8778;DHT22;4425;50.872;4.712;2023-03-12T15:13:00;13.40;99.90
8778;DHT22;4425;50.872;4.712;2023-03-12T15:15:35;13.40;99.90
8778;DHT22;4425;50.872;4.712;2023-03-12T15:18:07;13.30;99.90
8778;DHT22;4425;50.872;4.712;2023-03-12T15:20:38;13.40;99.90
8778;DHT22;4425;50.872;4.712;2023-03-12T15:23:05;13.30;99.90
8778;DHT22;4425;50.872;4.712;2023-03-12T15:25:34;13.30;99.90
8778;DHT22;4425;50.872;4.712;2023-03-12T15:28:06;13.40;99.90
8778;DHT22;4425;50.872;4.712;2023-03-12T15:30:38;13.40;99.90
8778;DHT22;4425;50.872;4.712;2023-03-12T15:33:11;13.40;99.90
8778;DHT22;4425;50.872;4.712;2023-03-12T15:35:42;13.40;99.90
8778;DHT22;4425;50.872;4.712;2023-03-12T15:38:13;13.30;99.90
8778;DHT22;4425;50.872;4.712;2023-03-12T15:40:48;13.20;99.90
8778;DHT22;4425;50.872;4.712;2023-03-12T15:43:18;13.20;99.90
8778;DHT22;4425;50.872;4.712;2023-03-12T15:45:47;13.20;99.90
8778;DHT22;4425;50.872;4.712;2023-03-12T15:48:26;13.30;99.90
8778;DHT22;4425;50.872;4.712;2023-03-12T15:50:55;13.20;99.90
8778;DHT22;4425;50.872;4.712;2023-03-12T15:53:30;13.20;99.90
8778;DHT22;4425;50.872;4.712;2023-03-12T15:56:01;13.20;99.90
8778;DHT22;4425;50.872;4.712;2023-03-12T15:58:30;13.20;99.90
8778;DHT22;4425;50.872;4.712;2023-03-12T16:01:09;13.40;99.90
8778;DHT22;4425;50.872;4.712;2023-03-12T16:03:41;13.20;99.90
8778;DHT22;4425;50.872;4.712;2023-03-12T16:06:15;13.20;99.90
8778;DHT22;4425;50.872;4.712;2023-03-12T16:08:45;13.10;99.90
8778;DHT22;4425;50.872;4.712;2023-03-12T16:11:20;13.10;99.90
8778;DHT22;4425;50.872;4.712;2023-03-12T16:13:51;13.10;99.90
8778;DHT22;4425;50.872;4.712;2023-03-12T16:16:22;13.10;99.90
8778;DHT22;4425;50.872;4.712;2023-03-12T16:18:52;13.00;99.90
8778;DHT22;4425;50.872;4.712;2023-03-12T16:21:24;13.10;99.90
8778;DHT22;4425;50.872;4.712;2023-03-12T16:23:55;13.00;99.90
8778;DHT22;4425;50.872;4.712;2023-03-12T16:26:24;13.00;99.90
8778;DHT22;4425;50.872;4.712;2023-03-12T16:28:56;12.90;99.90
8778;DHT22;4425;50.872;4.712;2023-03-12T16:31:24;12.90;99.90
8778;DHT22;4425;50.872;4.712;2023-03-12T16:33:52;12.90;99.90
8778;DHT22;4425;50.872;4.712;2023-03-12T16:36:19;12.90;99.90
8778;DHT22;4425;50.872;4.712;2023-03-12T16:38:48;12.80;99.90
8778;DHT22;4425;50.872;4.712;2023-03-12T16:41:16;12.80;99.90
8778;DHT22;4425;50.872;4.712;2023-03-12T16:43:49;12.80;99.90
8778;DHT22;4425;50.872;4.712;2023-03-12T16:46:20;12.80;99.90
8778;DHT22;4425;50.872;4.712;2023-03-12T16:48:52;12.70;99.90
8778;DHT22;4425;50.872;4.712;2023-03-12T16:51:21;12.70;99.90
8778;DHT22;4425;50.872;4.712;2023-03-12T16:53:54;12.70;99.90
8778;DHT22;4425;50.872;4.712;2023-03-12T16:56:23;12.70;99.90
8778;DHT22;4425;50.872;4.712;2023-03-12T16:58:53;12.60;99.90
8778;DHT22;4425;50.872;4.712;2023-03-12T17:01:24;12.50;99.90